Yuma, AZ

8:35 PM MST on August 28, 2015 (GMT -0700)
Caballero Park | | Change Station
CLOSE
Current Station
Personal Weather Station
Location: Yuma, AZ
Elevation: 200 ft
Nearby Weather Stations

Elev 200 ft 32.67 °N, 114.63 °W | Updated 8 minutes ago

Scattered Clouds
Scattered Clouds
99.9 °F
Feels Like 106 °F
N
4.7
Wind Variable Wind from SW

Today
High -- | Low -- °F
--% Chance of Precip.
Yesterday
High -- | Low -- °F
Precip. -- in
6:10 AM 7:08 PM
Waxing Gibbous, 99% visible
Pressure 29.70 in
Visibility 10.0 miles
Clouds Few 6000 ft
Scattered Clouds 20000 ft
Heat Index 106 °F
Dew Point 68 °F
Humidity 36%
Rainfall 0.00 in
Snow Depth Not available.
UV 0 out of 12
Pollen 6.60 out of 12
Air Quality Not available.
Flu Activity Not available.
METAR KNYL 290257Z 26005KT 10SM FEW060 SCT200 41/17 A2971 RMK AO2 SLP056 T04060172 53002
Pressure 29.70 in
Visibility 10.0 miles
Clouds Few 6000 ft
Scattered Clouds 20000 ft
Heat Index 106 °F
Dew Point 68 °F
Humidity 36%
Rainfall 0.00 in
Snow Depth Not available.
UV 0 out of 12
Pollen 6.60 out of 12
Air Quality Not available.
Flu Activity Not available.
METAR KNYL 290257Z 26005KT 10SM FEW060 SCT200 41/17 A2971 RMK AO2 SLP056 T04060172 53002

10-Day Weather Forecast

×

Almanac

Astronomy

Aug. 28, 2015 Rise Set
Actual Time
Civil Twilight
Nautical Twilight
Astronomical Twilight
Moon
Length of Visible Light
Length of Day
Tomorrow will be .
, % of the Moon is Illuminated

Today's Extremes

State Highs State Lows

Community

WunderPhotos

Upload Photos

1,850,609 photos uploaded!

WunderBlogs® & News

Nearby

Air Quality

  Air Quality AQ Index Pollutant
Not available.

Snow Depth

Station Depth Elevation

Earthquake Activity

City Distance Mag. Time & Date
Minimum magnitude displayed is 2.5.

Coastal Water Temperatures

Place Temperature

Stations

Nearby Weather Stations

Station Location Temp. Windchill Dew Point Humidity Wind Precip. Elev Updated Type